createdAt,value
2019-04-20T00:01:33.974Z,101149.29
2019-04-20T00:06:47.828Z,101145.11
2019-04-20T00:12:07.196Z,101141.66
2019-04-20T00:14:32.144Z,101144.16
2019-04-20T00:16:57.422Z,101144.12
2019-04-20T00:19:31.919Z,101141.30
2019-04-20T00:22:15.236Z,101141.23
2019-04-20T00:27:42.868Z,101139.77
2019-04-20T00:30:10.310Z,101142.41
2019-04-20T00:32:37.660Z,101139.28
2019-04-20T00:34:50.692Z,101134.30
2019-04-20T00:37:19.305Z,101140.47
2019-04-20T00:39:48.850Z,101140.47
2019-04-20T00:42:19.366Z,101138.77
2019-04-20T00:45:12.833Z,101138.77
2019-04-20T00:47:45.377Z,101135.03
2019-04-20T00:53:20.433Z,101134.23
2019-04-20T00:58:36.962Z,101128.33
2019-04-20T01:01:20.549Z,101136.56
2019-04-20T01:03:43.263Z,101130.95
2019-04-20T01:09:01.799Z,101134.98
2019-04-20T01:11:49.732Z,101131.60
2019-04-20T01:17:14.022Z,101139.05
2019-04-20T01:19:41.983Z,101140.72
2019-04-20T01:22:13.615Z,101140.72
2019-04-20T01:24:43.067Z,101136.27
2019-04-20T01:27:58.890Z,101135.14
2019-04-20T01:30:09.432Z,101135.14
2019-04-20T01:32:36.005Z,101136.88
2019-04-20T01:35:14.007Z,101136.88
2019-04-20T01:40:02.619Z,101136.34
2019-04-20T01:42:29.932Z,101134.25
2019-04-20T01:44:58.977Z,101136.73
2019-04-20T01:47:35.726Z,101136.73
2019-04-20T01:50:05.837Z,101140.25
2019-04-20T01:55:33.310Z,101137.23
2019-04-20T01:58:06.262Z,101136.95
2019-04-20T02:00:30.729Z,101131.33
2019-04-20T02:03:17.012Z,101131.33
2019-04-20T02:08:22.963Z,101133.05
2019-04-20T02:10:53.702Z,101133.05
2019-04-20T02:13:17.735Z,101144.00
2019-04-20T02:16:12.893Z,101147.33
2019-04-20T02:18:44.100Z,101147.33
2019-04-20T02:21:19.861Z,101149.91
2019-04-20T02:23:40.759Z,101149.91
2019-04-20T02:26:01.376Z,101147.99
2019-04-20T02:29:13.527Z,101148.39
2019-04-20T02:34:57.764Z,101148.25
2019-04-20T02:37:58.447Z,101148.25
2019-04-20T02:45:33.361Z,101154.60
2019-04-20T02:48:13.411Z,101151.72
2019-04-20T02:53:20.329Z,101154.56
2019-04-20T02:56:12.295Z,101148.86
2019-04-20T02:58:41.535Z,101148.86
2019-04-20T03:01:00.780Z,101148.94
2019-04-20T03:03:17.274Z,101155.78
2019-04-20T03:05:43.260Z,101155.78
2019-04-20T03:08:46.903Z,101150.56
2019-04-20T03:11:18.049Z,101150.56
2019-04-20T03:13:41.752Z,101156.27
2019-04-20T03:16:12.286Z,101154.61
2019-04-20T03:18:39.936Z,101154.61
2019-04-20T03:21:11.239Z,101159.26
2019-04-20T03:23:46.215Z,101151.55
2019-04-20T03:26:31.263Z,101157.14
2019-04-20T03:29:09.904Z,101157.14
2019-04-20T03:34:54.871Z,101156.08
2019-04-20T03:37:07.302Z,101160.75
2019-04-20T03:39:28.896Z,101152.12
2019-04-20T03:41:46.989Z,101163.14
2019-04-20T03:44:14.146Z,101161.52
2019-04-20T03:46:45.558Z,101167.03
2019-04-20T03:49:27.513Z,101167.03
2019-04-20T03:51:57.417Z,101162.81
2019-04-20T03:57:31.073Z,101168.44
2019-04-20T04:00:01.754Z,101168.44
2019-04-20T04:03:02.991Z,101166.34
2019-04-20T04:05:34.061Z,101167.72
2019-04-20T04:08:14.735Z,101166.28
2019-04-20T04:11:14.782Z,101166.28
2019-04-20T04:13:21.241Z,101160.88
2019-04-20T04:18:34.674Z,101163.62
2019-04-20T04:21:23.158Z,101164.08
2019-04-20T04:26:38.051Z,101169.02
2019-04-20T04:29:08.180Z,101169.02
2019-04-20T04:31:41.291Z,101172.17
2019-04-20T04:34:22.947Z,101172.17
2019-04-20T04:37:14.965Z,101175.86
2019-04-20T04:39:46.962Z,101183.23
2019-04-20T04:42:20.377Z,101179.05
2019-04-20T04:44:34.520Z,101179.05
2019-04-20T04:46:57.824Z,101180.64
2019-04-20T04:49:26.771Z,101181.36
2019-04-20T04:51:57.454Z,101190.51
2019-04-20T04:54:46.325Z,101191.03
2019-04-20T04:57:07.384Z,101191.03
2019-04-20T04:59:36.234Z,101187.39
2019-04-20T05:02:29.798Z,101187.39
2019-04-20T05:05:30.952Z,101191.07
2019-04-20T05:08:10.197Z,101197.72
2019-04-20T05:13:21.934Z,101196.93
2019-04-20T05:16:03.586Z,101194.02
2019-04-20T05:18:45.001Z,101194.02
2019-04-20T05:24:15.362Z,101195.54
2019-04-20T05:27:07.467Z,101204.83
2019-04-20T05:31:56.262Z,101196.99
2019-04-20T05:34:45.171Z,101195.22
2019-04-20T05:37:24.000Z,101195.36
2019-04-20T05:39:45.768Z,101195.36
2019-04-20T05:42:09.563Z,101189.89
2019-04-20T05:44:46.188Z,101193.47
2019-04-20T05:47:11.295Z,101190.46
2019-04-20T05:49:56.137Z,101190.46
2019-04-20T05:52:35.102Z,101187.23
2019-04-20T05:55:21.036Z,101192.86
2019-04-20T05:57:52.437Z,101190.65
2019-04-20T06:00:23.320Z,101185.02
2019-04-20T06:02:44.083Z,101185.02
2019-04-20T06:05:19.614Z,101191.01
2019-04-20T06:07:42.046Z,101186.98
2019-04-20T06:10:13.519Z,101187.13
2019-04-20T06:12:47.789Z,101193.42
2019-04-20T06:15:24.507Z,101193.42
2019-04-20T06:18:03.880Z,101180.48
2019-04-20T06:23:38.700Z,101188.39
2019-04-20T06:29:22.531Z,101190.20
2019-04-20T06:31:52.016Z,101189.64
2019-04-20T06:37:29.725Z,101187.96
2019-04-20T06:40:36.531Z,101182.61
2019-04-20T06:42:52.029Z,101182.61
2019-04-20T06:45:22.605Z,101188.59
2019-04-20T06:47:52.105Z,101189.93
2019-04-20T06:50:14.995Z,101187.39
2019-04-20T06:53:01.912Z,101186.81
2019-04-20T06:55:40.284Z,101191.78
2019-04-20T06:58:39.570Z,101199.55
2019-04-20T07:01:06.616Z,101199.55
2019-04-20T07:03:53.115Z,101186.55
2019-04-20T07:06:29.308Z,101188.15
2019-04-20T07:08:51.093Z,101192.34
2019-04-20T07:19:18.785Z,101195.58
2019-04-20T07:22:23.377Z,101192.85
2019-04-20T07:24:42.881Z,101196.56
2019-04-20T07:27:06.835Z,101191.55
2019-04-20T07:29:40.683Z,101190.38
2019-04-20T07:31:57.702Z,101181.41
2019-04-20T07:34:33.710Z,101181.41
2019-04-20T07:37:43.171Z,101173.63
2019-04-20T07:39:44.503Z,101178.05
2019-04-20T07:42:08.465Z,101178.69
2019-04-20T07:44:42.984Z,101175.73
2019-04-20T07:47:18.384Z,101178.00
2019-04-20T07:49:34.610Z,101175.39
2019-04-20T07:51:49.460Z,101171.88
2019-04-20T07:54:49.279Z,101175.87
2019-04-20T07:57:03.511Z,101174.84
2019-04-20T07:59:27.515Z,101167.52
2019-04-20T08:02:26.194Z,101167.52
2019-04-20T08:04:53.596Z,101168.39
2019-04-20T08:07:09.565Z,101169.91
2019-04-20T08:09:49.005Z,101168.55
2019-04-20T08:12:38.288Z,101168.55
2019-04-20T08:15:03.541Z,101165.17
2019-04-20T08:17:41.898Z,101163.98
2019-04-20T08:20:05.699Z,101166.27
2019-04-20T08:22:34.142Z,101162.20
2019-04-20T08:24:55.265Z,101165.20
2019-04-20T08:27:18.395Z,101165.20
2019-04-20T08:30:09.073Z,101166.22
2019-04-20T08:33:16.477Z,101166.22
2019-04-20T08:35:49.349Z,101163.35
2019-04-20T08:38:47.341Z,101173.98
2019-04-20T08:40:46.333Z,101161.22
2019-04-20T08:45:48.442Z,101163.91
2019-04-20T08:48:18.873Z,101159.91
2019-04-20T08:50:45.524Z,101150.58
2019-04-20T08:53:27.592Z,101155.45
2019-04-20T08:55:42.529Z,101155.45
2019-04-20T08:57:57.055Z,101146.28
2019-04-20T09:00:33.343Z,101146.28
2019-04-20T09:03:12.144Z,101155.08
2019-04-20T09:05:43.746Z,101155.08
2019-04-20T09:08:11.292Z,101153.75
2019-04-20T09:10:48.212Z,101145.86
2019-04-20T09:13:11.664Z,101145.86
2019-04-20T09:15:32.079Z,101149.95
2019-04-20T09:18:09.056Z,101138.66
2019-04-20T09:20:43.542Z,101138.66
2019-04-20T09:23:21.351Z,101141.20
2019-04-20T09:28:38.472Z,101141.16
2019-04-20T09:31:29.288Z,101141.95
2019-04-20T09:34:06.268Z,101146.66
2019-04-20T09:36:51.326Z,101147.25
2019-04-20T09:39:35.140Z,101140.99
2019-04-20T09:42:06.683Z,101138.09
2019-04-20T09:44:38.079Z,101133.78
2019-04-20T09:47:07.380Z,101135.45
2019-04-20T09:49:49.385Z,101140.31
2019-04-20T09:52:21.219Z,101134.58
2019-04-20T09:54:57.649Z,101134.58
2019-04-20T09:57:26.776Z,101133.94
2019-04-20T09:59:57.708Z,101129.09
2019-04-20T10:02:16.763Z,101135.64
2019-04-20T10:04:37.705Z,101131.60
2019-04-20T10:07:12.933Z,101131.89
2019-04-20T10:09:39.810Z,101127.33
2019-04-20T10:12:05.871Z,101125.77
2019-04-20T10:14:36.775Z,101120.61
2019-04-20T10:17:10.002Z,101117.84
2019-04-20T10:19:40.973Z,101117.25
2019-04-20T10:22:13.055Z,101117.28
2019-04-20T10:24:42.304Z,101108.44
2019-04-20T10:27:10.760Z,101119.95
2019-04-20T10:29:39.731Z,101115.37
2019-04-20T10:32:12.578Z,101113.98
2019-04-20T10:34:38.847Z,101108.45
2019-04-20T10:37:25.631Z,101104.47
2019-04-20T10:39:54.485Z,101105.73
2019-04-20T10:42:23.893Z,101107.11
2019-04-20T10:44:55.184Z,101102.73
2019-04-20T10:47:25.342Z,101105.67
2019-04-20T10:50:00.877Z,101101.91
2019-04-20T10:52:32.034Z,101096.30
2019-04-20T10:55:04.220Z,101089.41
2019-04-20T10:57:33.408Z,101095.54
2019-04-20T11:00:03.823Z,101087.62
2019-04-20T11:02:32.072Z,101089.08
2019-04-20T11:05:00.367Z,101085.86
2019-04-20T11:07:28.872Z,101089.24
2019-04-20T11:10:17.815Z,101081.05
2019-04-20T11:12:28.711Z,101077.59
2019-04-20T11:14:56.963Z,101083.25
2019-04-20T11:17:28.559Z,101086.37
2019-04-20T11:19:55.405Z,101081.02
2019-04-20T11:22:24.163Z,101081.02
2019-04-20T11:24:54.363Z,101073.23
2019-04-20T11:27:22.521Z,101078.39
2019-04-20T11:29:51.897Z,101076.53
2019-04-20T11:32:20.289Z,101071.49
2019-04-20T11:34:49.179Z,101070.27
2019-04-20T11:37:19.281Z,101067.72
2019-04-20T11:39:52.894Z,101065.38
2019-04-20T11:42:21.721Z,101060.72
2019-04-20T11:44:54.920Z,101056.55
2019-04-20T11:47:24.977Z,101053.50
2019-04-20T11:49:55.398Z,101055.45
2019-04-20T11:52:24.910Z,101047.66
2019-04-20T11:54:54.670Z,101052.08
2019-04-20T11:57:23.247Z,101051.01
2019-04-20T11:59:52.906Z,101044.42
2019-04-20T12:02:35.082Z,101048.37
2019-04-20T12:05:13.158Z,101044.17
2019-04-20T12:07:33.744Z,101041.30
2019-04-20T12:10:08.108Z,101037.17
2019-04-20T12:12:41.526Z,101038.56
2019-04-20T12:15:04.605Z,101034.24
2019-04-20T12:17:33.498Z,101025.63
2019-04-20T12:20:01.856Z,101025.25
2019-04-20T12:22:32.346Z,101018.88
2019-04-20T12:25:00.403Z,101018.88
2019-04-20T12:27:28.722Z,101017.15
2019-04-20T12:29:57.534Z,101014.20
2019-04-20T12:32:35.223Z,101014.98
2019-04-20T12:34:58.263Z,101012.14
2019-04-20T12:37:27.017Z,101016.30
2019-04-20T12:39:58.290Z,101015.22
2019-04-20T12:42:26.349Z,101010.19
2019-04-20T12:44:55.631Z,101013.02
2019-04-20T12:47:24.108Z,101009.36
2019-04-20T12:49:52.214Z,101011.01
2019-04-20T12:52:22.971Z,101007.81
2019-04-20T12:54:52.543Z,101012.23
2019-04-20T12:57:20.747Z,101006.55
2019-04-20T12:59:49.612Z,101004.29
2019-04-20T13:02:23.402Z,100998.15
2019-04-20T13:04:51.608Z,100988.38
2019-04-20T13:07:19.804Z,100988.38
2019-04-20T13:09:50.692Z,100997.09
2019-04-20T13:12:36.317Z,100996.16
2019-04-20T13:15:06.535Z,100994.21
2019-04-20T13:17:34.767Z,100983.33
2019-04-20T13:20:10.427Z,100993.05
2019-04-20T13:22:41.117Z,100989.64
2019-04-20T13:25:13.064Z,100973.41
2019-04-20T13:27:44.986Z,100979.48
2019-04-20T13:30:16.567Z,100979.48
2019-04-20T13:32:47.802Z,100979.24
2019-04-20T13:35:22.510Z,100972.91
2019-04-20T13:37:49.863Z,100967.98
2019-04-20T13:40:21.832Z,100967.17
2019-04-20T13:42:51.896Z,100958.01
2019-04-20T13:45:21.246Z,100957.45
2019-04-20T13:47:52.792Z,100957.62
2019-04-20T13:50:22.051Z,100953.96
2019-04-20T13:52:51.035Z,100950.45
2019-04-20T13:55:22.073Z,100946.85
2019-04-20T13:58:05.824Z,100957.50
2019-04-20T14:00:52.108Z,100941.98
2019-04-20T14:03:24.899Z,100940.05
2019-04-20T14:05:56.508Z,100934.00
2019-04-20T14:08:25.319Z,100938.57
2019-04-20T14:10:55.672Z,100938.57
2019-04-20T14:13:35.263Z,100933.89
2019-04-20T14:16:00.808Z,100933.28
2019-04-20T14:18:29.136Z,100933.28
2019-04-20T14:20:58.332Z,100928.84
2019-04-20T14:23:27.063Z,100933.39
2019-04-20T14:26:03.114Z,100930.38
2019-04-20T14:28:36.735Z,100928.36
2019-04-20T14:31:04.186Z,100928.29
2019-04-20T14:33:34.865Z,100927.25
2019-04-20T14:36:03.285Z,100921.33
2019-04-20T14:38:32.362Z,100921.33
2019-04-20T14:41:02.167Z,100922.50
2019-04-20T14:43:32.878Z,100915.80
2019-04-20T14:46:00.945Z,100909.11
2019-04-20T14:48:29.140Z,100911.77
2019-04-20T14:50:57.415Z,100900.80
2019-04-20T14:53:27.359Z,100901.41
2019-04-20T14:55:57.599Z,100906.13
2019-04-20T14:58:45.080Z,100907.33
2019-04-20T15:01:40.993Z,100902.48
2019-04-20T15:04:14.909Z,100902.42
2019-04-20T15:06:42.151Z,100900.59
2019-04-20T15:09:14.934Z,100890.75
2019-04-20T15:11:46.018Z,100890.75
2019-04-20T15:14:14.458Z,100889.33
2019-04-20T15:16:42.800Z,100882.95
2019-04-20T15:19:32.024Z,100890.72
2019-04-20T15:22:07.564Z,100890.28
2019-04-20T15:24:37.584Z,100880.86
2019-04-20T15:27:10.155Z,100881.37
2019-04-20T15:29:40.343Z,100882.72
2019-04-20T15:32:10.155Z,100889.38
2019-04-20T15:34:39.177Z,100874.78
2019-04-20T15:37:07.908Z,100872.33
2019-04-20T15:39:37.027Z,100874.75
2019-04-20T15:42:07.733Z,100874.44
2019-04-20T15:44:37.466Z,100871.20
2019-04-20T15:47:07.028Z,100874.25
2019-04-20T15:49:42.033Z,100869.42
2019-04-20T15:52:13.555Z,100869.42
2019-04-20T15:54:41.207Z,100863.72
2019-04-20T15:57:16.609Z,100865.11
2019-04-20T15:59:40.708Z,100865.11
2019-04-20T16:02:15.558Z,100860.45
2019-04-20T16:05:00.682Z,100860.45
2019-04-20T16:07:32.907Z,100862.41
2019-04-20T16:09:59.129Z,100859.86
2019-04-20T16:12:28.893Z,100866.34
2019-04-20T16:14:57.702Z,100864.51
2019-04-20T16:17:32.800Z,100855.41
2019-04-20T16:20:05.998Z,100864.11
2019-04-20T16:22:31.982Z,100864.11
2019-04-20T16:25:19.287Z,100859.69
2019-04-20T16:27:47.890Z,100858.43
2019-04-20T16:30:17.857Z,100864.83
2019-04-20T16:32:46.072Z,100862.33
2019-04-20T16:35:14.589Z,100865.56
2019-04-20T16:37:42.691Z,100867.24
2019-04-20T16:40:11.636Z,100858.56
2019-04-20T16:42:42.198Z,100858.56
2019-04-20T16:45:11.487Z,100861.56
2019-04-20T16:47:39.952Z,100857.39
2019-04-20T16:50:08.835Z,100855.80
2019-04-20T16:52:40.972Z,100854.36
2019-04-20T16:55:11.277Z,100857.67
2019-04-20T16:57:45.021Z,100847.84
2019-04-20T17:00:13.701Z,100848.84
2019-04-20T17:02:44.480Z,100844.36
2019-04-20T17:05:15.224Z,100847.38
2019-04-20T17:07:48.958Z,100844.22
2019-04-20T17:10:20.177Z,100844.22
2019-04-20T17:12:55.695Z,100845.04
2019-04-20T17:15:24.018Z,100845.15
2019-04-20T17:17:55.717Z,100845.15
2019-04-20T17:20:27.195Z,100850.67
2019-04-20T17:22:56.479Z,100856.20
2019-04-20T17:25:25.785Z,100856.20
2019-04-20T17:28:18.316Z,100861.33
2019-04-20T17:31:09.184Z,100863.05
2019-04-20T17:33:58.855Z,100856.12
2019-04-20T17:36:24.734Z,100854.97
2019-04-20T17:38:54.515Z,100852.98
2019-04-20T17:41:41.439Z,100850.77
2019-04-20T17:44:09.932Z,100850.77
2019-04-20T17:46:53.346Z,100853.70
2019-04-20T17:49:28.255Z,100856.09
2019-04-20T17:52:05.105Z,100857.41
2019-04-20T17:54:27.187Z,100854.36
2019-04-20T17:56:56.213Z,100859.09
2019-04-20T17:59:26.289Z,100859.09
2019-04-20T18:02:24.963Z,100861.27
2019-04-20T18:07:46.282Z,100863.70
2019-04-20T18:10:17.257Z,100863.50
2019-04-20T18:12:38.621Z,100864.64
2019-04-20T18:15:21.060Z,100864.64
2019-04-20T18:18:00.258Z,100860.21
2019-04-20T18:20:28.041Z,100867.59
2019-04-20T18:22:58.839Z,100866.38
2019-04-20T18:25:56.199Z,100868.86
2019-04-20T18:28:14.590Z,100866.75
2019-04-20T18:30:54.753Z,100868.70
2019-04-20T18:33:18.850Z,100877.17
2019-04-20T18:35:47.909Z,100872.68
2019-04-20T18:38:24.033Z,100876.33
2019-04-20T18:41:00.507Z,100876.33
2019-04-20T18:43:26.186Z,100877.49
2019-04-20T18:46:12.462Z,100877.08
2019-04-20T18:48:43.390Z,100877.08
2019-04-20T18:50:54.826Z,100889.19
2019-04-20T18:53:32.523Z,100890.80
2019-04-20T18:56:00.594Z,100884.97
2019-04-20T18:58:28.977Z,100895.83
2019-04-20T19:00:58.993Z,100895.83
2019-04-20T19:03:33.696Z,100895.19
2019-04-20T19:06:00.194Z,100891.84
2019-04-20T19:08:33.900Z,100900.98
2019-04-20T19:11:04.135Z,100895.69
2019-04-20T19:13:40.199Z,100895.69
2019-04-20T19:16:34.714Z,100897.82
2019-04-20T19:19:28.584Z,100897.82
2019-04-20T19:21:48.104Z,100897.91
2019-04-20T19:24:29.500Z,100894.80
2019-04-20T19:27:02.943Z,100899.59
2019-04-20T19:29:34.593Z,100899.59
2019-04-20T19:32:21.120Z,100901.16
2019-04-20T19:34:47.507Z,100906.00
2019-04-20T19:37:15.683Z,100904.22
2019-04-20T19:39:53.238Z,100904.22
2019-04-20T19:42:27.624Z,100899.92
2019-04-20T19:44:58.027Z,100911.78
2019-04-20T19:47:33.535Z,100904.32
2019-04-20T19:49:51.821Z,100904.32
2019-04-20T19:52:36.870Z,100906.97
2019-04-20T19:55:02.551Z,100906.40
2019-04-20T19:57:35.115Z,100905.13
2019-04-20T19:59:52.144Z,100905.13
2019-04-20T20:02:18.445Z,100907.09
2019-04-20T20:05:00.434Z,100907.39
2019-04-20T20:07:28.470Z,100912.34
2019-04-20T20:09:55.665Z,100912.34
2019-04-20T20:12:27.363Z,100908.59
2019-04-20T20:14:57.436Z,100910.20
2019-04-20T20:17:48.645Z,100911.11
2019-04-20T20:20:38.252Z,100906.64
2019-04-20T20:23:16.173Z,100914.86
2019-04-20T20:25:54.833Z,100914.86
2019-04-20T20:28:50.712Z,100909.16
2019-04-20T20:31:28.279Z,100915.73
2019-04-20T20:33:58.079Z,100912.41
2019-04-20T20:36:21.753Z,100911.55
2019-04-20T20:38:52.508Z,100918.14
2019-04-20T20:42:04.867Z,100918.14
2019-04-20T20:44:38.018Z,100915.22
2019-04-20T20:47:39.682Z,100917.02
2019-04-20T20:50:15.551Z,100917.02
2019-04-20T20:52:36.911Z,100912.10
2019-04-20T20:58:18.332Z,100913.95
2019-04-20T21:03:32.260Z,100912.43
2019-04-20T21:05:58.107Z,100909.55
2019-04-20T21:08:26.637Z,100909.55
2019-04-20T21:14:01.784Z,100909.11
2019-04-20T21:20:04.358Z,100916.84
2019-04-20T21:25:03.548Z,100901.80
2019-04-20T21:27:33.167Z,100907.77
2019-04-20T21:30:03.524Z,100905.47
2019-04-20T21:35:43.322Z,100902.43
2019-04-20T21:41:21.844Z,100906.27
2019-04-20T21:44:16.953Z,100902.92
2019-04-20T21:47:10.205Z,100902.92
2019-04-20T21:52:26.917Z,100900.04
2019-04-20T21:55:07.996Z,100895.77
2019-04-20T21:57:59.050Z,100898.44
2019-04-20T22:00:47.721Z,100891.45
2019-04-20T22:03:32.248Z,100891.45
2019-04-20T22:06:34.249Z,100884.12
2019-04-20T22:09:25.694Z,100882.51
2019-04-20T22:14:33.640Z,100875.98
2019-04-20T22:17:23.657Z,100875.98
2019-04-20T22:20:20.066Z,100881.95
2019-04-20T22:25:47.475Z,100879.12
2019-04-20T22:28:00.624Z,100879.12
2019-04-20T22:30:48.299Z,100883.05
2019-04-20T22:36:34.037Z,100879.87
2019-04-20T22:39:15.926Z,100877.03
2019-04-20T22:42:01.155Z,100875.45
2019-04-20T22:44:26.566Z,100881.28
2019-04-20T22:46:54.282Z,100874.70
2019-04-20T22:49:36.139Z,100874.70
2019-04-20T22:52:00.638Z,100870.42
2019-04-20T22:54:36.265Z,100866.26
2019-04-20T22:57:02.276Z,100861.88
2019-04-20T22:59:24.631Z,100861.88
2019-04-20T23:01:56.135Z,100855.28
2019-04-20T23:04:38.951Z,100857.95
2019-04-20T23:07:08.433Z,100857.95
2019-04-20T23:09:43.911Z,100853.16
2019-04-20T23:12:11.222Z,100848.77
2019-04-20T23:14:36.322Z,100846.66
2019-04-20T23:17:30.187Z,100845.91
2019-04-20T23:19:57.718Z,100844.63
2019-04-20T23:22:45.719Z,100844.81
2019-04-20T23:25:11.268Z,100836.98
2019-04-20T23:27:41.804Z,100836.98
2019-04-20T23:33:14.149Z,100835.84
2019-04-20T23:35:44.874Z,100827.77
2019-04-20T23:38:15.825Z,100827.37
2019-04-20T23:40:59.632Z,100816.74
2019-04-20T23:43:47.355Z,100816.74
2019-04-20T23:46:34.899Z,100812.71
2019-04-20T23:49:27.256Z,100815.31
2019-04-20T23:52:09.673Z,100799.70
2019-04-20T23:54:25.587Z,100799.70
2019-04-20T23:56:50.077Z,100803.31
2019-04-20T23:59:19.169Z,100803.11
